createdAt,value
2022-09-03T00:00:09.143Z,99791.13
2022-09-03T00:03:14.336Z,99797.63
2022-09-03T00:05:56.648Z,99793.97
2022-09-03T00:08:33.469Z,99794.00
2022-09-03T00:11:32.349Z,99802.94
2022-09-03T00:14:09.788Z,99801.34
2022-09-03T00:16:57.556Z,99806.63
2022-09-03T00:19:35.178Z,99805.00
2022-09-03T00:22:15.575Z,99801.56
2022-09-03T00:24:46.037Z,99799.72
2022-09-03T00:27:26.247Z,99804.19
2022-09-03T00:30:03.571Z,99804.78
2022-09-03T00:32:53.150Z,99803.34
2022-09-03T00:35:32.249Z,99797.91
2022-09-03T00:38:00.926Z,99802.34
2022-09-03T00:40:38.904Z,99812.09
2022-09-03T00:43:25.912Z,99813.66
2022-09-03T00:46:07.262Z,99805.28
2022-09-03T00:48:54.783Z,99802.41
2022-09-03T00:51:53.334Z,99794.38
2022-09-03T00:54:43.032Z,99797.66
2022-09-03T00:57:34.682Z,99795.25
2022-09-03T01:00:16.382Z,99797.28
2022-09-03T01:03:09.781Z,99797.69
2022-09-03T01:06:04.055Z,99808.59
2022-09-03T01:08:51.004Z,99802.97
2022-09-03T01:11:41.350Z,99813.44
2022-09-03T01:14:39.051Z,99814.63
2022-09-03T01:17:40.711Z,99810.13
2022-09-03T01:20:26.003Z,99811.75
2022-09-03T01:23:17.591Z,99806.31
2022-09-03T01:26:26.393Z,99806.16
2022-09-03T01:29:35.749Z,99800.25
2022-09-03T01:32:59.715Z,99800.09
2022-09-03T01:35:46.537Z,99792.38
2022-09-03T01:38:41.146Z,99806.09
2022-09-03T01:41:39.935Z,99808.16
2022-09-03T01:44:55.827Z,99804.34
2022-09-03T01:47:53.354Z,99810.38
2022-09-03T01:50:34.835Z,99809.38
2022-09-03T01:54:21.369Z,99802.06
2022-09-03T01:57:45.909Z,99805.84
2022-09-03T02:00:20.185Z,99815.34
2022-09-03T02:02:51.499Z,99817.94
2022-09-03T02:05:26.961Z,99823.03
2022-09-03T02:08:05.475Z,99834.59
2022-09-03T02:10:48.985Z,99828.75
2022-09-03T02:13:20.509Z,99832.78
2022-09-03T02:15:50.967Z,99827.88
2022-09-03T02:18:23.643Z,99824.81
2022-09-03T02:20:55.928Z,99831.06
2022-09-03T02:23:27.840Z,99831.81
2022-09-03T02:26:02.145Z,99819.69
2022-09-03T02:28:31.259Z,99826.56
2022-09-03T02:30:58.705Z,99817.84
2022-09-03T02:33:26.650Z,99816.81
2022-09-03T02:35:54.338Z,99818.06
2022-09-03T02:38:26.032Z,99816.25
2022-09-03T02:40:56.325Z,99809.59
2022-09-03T02:43:58.551Z,99809.97
2022-09-03T02:46:34.544Z,99822.53
2022-09-03T02:49:01.602Z,99827.63
2022-09-03T02:51:37.112Z,99824.59
2022-09-03T02:54:05.023Z,99802.41
2022-09-03T02:56:33.412Z,99814.09
2022-09-03T02:59:00.619Z,99819.94
2022-09-03T03:01:28.880Z,99815.91
2022-09-03T03:03:59.771Z,99805.59
2022-09-03T03:06:27.047Z,99794.47
2022-09-03T03:08:57.146Z,99807.06
2022-09-03T03:11:25.373Z,99802.00
2022-09-03T03:13:52.686Z,99817.41
2022-09-03T03:16:19.776Z,99814.66
2022-09-03T03:18:46.849Z,99816.28
2022-09-03T03:21:16.970Z,99808.56
2022-09-03T03:23:44.449Z,99817.44
2022-09-03T03:26:18.404Z,99828.75
2022-09-03T03:28:48.977Z,99837.19
2022-09-03T03:31:19.962Z,99839.16
2022-09-03T03:34:02.768Z,99829.91
2022-09-03T03:36:33.012Z,99833.63
2022-09-03T03:39:01.390Z,99828.66
2022-09-03T03:41:35.187Z,99835.13
2022-09-03T03:44:06.298Z,99835.34
2022-09-03T03:46:41.425Z,99820.41
2022-09-03T03:49:10.414Z,99823.66
2022-09-03T03:51:38.313Z,99835.41
2022-09-03T03:54:06.230Z,99826.56
2022-09-03T03:56:35.287Z,99835.66
2022-09-03T03:59:02.519Z,99840.50
2022-09-03T04:01:29.982Z,99846.56
2022-09-03T04:04:00.008Z,99841.53
2022-09-03T04:06:30.307Z,99846.59
2022-09-03T04:09:00.348Z,99841.56
2022-09-03T04:11:28.357Z,99844.81
2022-09-03T04:13:55.535Z,99841.59
2022-09-03T04:16:27.743Z,99838.34
2022-09-03T04:18:56.805Z,99849.69
2022-09-03T04:21:28.656Z,99840.59
2022-09-03T04:23:57.607Z,99843.03
2022-09-03T04:26:31.757Z,99844.59
2022-09-03T04:29:09.011Z,99850.69
2022-09-03T04:31:37.962Z,99850.94
2022-09-03T04:34:09.386Z,99857.63
2022-09-03T04:36:37.655Z,99852.34
2022-09-03T04:39:05.652Z,99856.41
2022-09-03T04:41:32.799Z,99859.84
2022-09-03T04:44:00.850Z,99858.25
2022-09-03T04:46:33.451Z,99861.25
2022-09-03T04:49:01.919Z,99860.06
2022-09-03T04:51:30.127Z,99862.47
2022-09-03T04:54:00.331Z,99864.50
2022-09-03T04:56:30.883Z,99866.31
2022-09-03T04:59:08.781Z,99869.34
2022-09-03T05:01:38.811Z,99870.81
2022-09-03T05:04:07.239Z,99875.63
2022-09-03T05:06:36.080Z,99869.38
2022-09-03T05:09:05.141Z,99867.16
2022-09-03T05:11:32.644Z,99868.34
2022-09-03T05:14:01.006Z,99868.97
2022-09-03T05:16:30.354Z,99874.44
2022-09-03T05:18:59.906Z,99880.72
2022-09-03T05:21:28.690Z,99878.25
2022-09-03T05:23:56.567Z,99893.47
2022-09-03T05:26:32.247Z,99899.31
2022-09-03T05:29:02.415Z,99907.63
2022-09-03T05:31:32.039Z,99902.56
2022-09-03T05:34:02.701Z,99906.22
2022-09-03T05:36:34.669Z,99916.78
2022-09-03T05:39:02.016Z,99913.94
2022-09-03T05:41:29.873Z,99909.88
2022-09-03T05:43:59.581Z,99917.56
2022-09-03T05:46:32.840Z,99923.78
2022-09-03T05:49:02.375Z,99921.94
2022-09-03T05:51:32.679Z,99922.78
2022-09-03T05:54:08.862Z,99918.72
2022-09-03T05:56:40.171Z,99911.28
2022-09-03T05:59:10.730Z,99910.66
2022-09-03T06:01:50.428Z,99920.72
2022-09-03T06:04:22.758Z,99917.31
2022-09-03T06:06:50.056Z,99923.31
2022-09-03T06:09:23.142Z,99921.56
2022-09-03T06:11:54.323Z,99918.34
2022-09-03T06:14:26.809Z,99928.44
2022-09-03T06:16:55.654Z,99927.69
2022-09-03T06:19:22.820Z,99921.16
2022-09-03T06:21:49.843Z,99925.63
2022-09-03T06:24:22.684Z,99928.50
2022-09-03T06:26:54.440Z,99926.00
2022-09-03T06:29:22.021Z,99930.06
2022-09-03T06:31:50.873Z,99933.94
2022-09-03T06:34:18.601Z,99934.16
2022-09-03T06:36:46.243Z,99931.88
2022-09-03T06:39:13.299Z,99940.56
2022-09-03T06:41:40.286Z,99952.53
2022-09-03T06:44:11.767Z,99966.97
2022-09-03T06:46:42.660Z,99965.13
2022-09-03T06:49:11.304Z,99966.50
2022-09-03T06:51:39.359Z,99967.09
2022-09-03T06:54:09.495Z,99964.47
2022-09-03T06:56:40.578Z,99973.63
2022-09-03T06:59:14.346Z,99969.28
2022-09-03T07:01:45.356Z,99971.34
2022-09-03T07:04:16.921Z,99973.22
2022-09-03T07:06:46.555Z,99972.94
2022-09-03T07:09:15.626Z,99966.50
2022-09-03T07:11:48.167Z,99956.69
2022-09-03T07:14:19.013Z,99942.69
2022-09-03T07:16:47.388Z,99957.25
2022-09-03T07:19:15.361Z,99941.47
2022-09-03T07:21:48.804Z,99933.38
2022-09-03T07:24:18.549Z,99932.94
2022-09-03T07:26:47.255Z,99955.63
2022-09-03T07:29:20.712Z,99940.06
2022-09-03T07:31:51.960Z,99949.00
2022-09-03T07:34:22.149Z,99951.88
2022-09-03T07:36:51.433Z,99949.41
2022-09-03T07:39:19.199Z,99942.66
2022-09-03T07:41:47.253Z,99940.97
2022-09-03T07:44:19.562Z,99940.53
2022-09-03T07:46:49.030Z,99933.78
2022-09-03T07:49:17.242Z,99931.09
2022-09-03T07:51:46.499Z,99944.72
2022-09-03T07:54:14.474Z,99969.41
2022-09-03T07:56:41.645Z,99983.50
2022-09-03T07:59:09.160Z,99989.00
2022-09-03T08:01:41.591Z,99968.44
2022-09-03T08:04:09.788Z,99984.16
2022-09-03T08:06:38.650Z,99961.66
2022-09-03T08:09:09.901Z,99956.75
2022-09-03T08:11:40.168Z,99961.81
2022-09-03T08:14:10.735Z,99970.50
2022-09-03T08:16:44.791Z,99974.63
2022-09-03T08:19:13.487Z,99985.63
2022-09-03T08:21:44.739Z,99971.63
2022-09-03T08:24:12.818Z,99985.22
2022-09-03T08:26:46.209Z,99984.00
2022-09-03T08:29:17.848Z,99972.91
2022-09-03T08:31:44.934Z,99977.00
2022-09-03T08:34:13.181Z,99983.91
2022-09-03T08:36:43.375Z,99984.56
2022-09-03T08:39:11.890Z,99977.53
2022-09-03T08:41:51.118Z,99984.19
2022-09-03T08:44:47.319Z,99988.44
2022-09-03T08:47:30.423Z,99986.81
2022-09-03T08:50:21.666Z,99980.22
2022-09-03T08:52:50.583Z,99976.44
2022-09-03T08:55:33.767Z,99983.00
2022-09-03T08:58:21.628Z,99989.59
2022-09-03T09:01:13.859Z,99995.53
2022-09-03T09:04:14.570Z,99996.72
2022-09-03T09:07:00.670Z,100000.28
2022-09-03T09:09:31.539Z,100006.16
2022-09-03T09:12:46.457Z,100006.22
2022-09-03T09:16:04.015Z,100010.88
2022-09-03T09:19:05.214Z,100014.59
2022-09-03T09:21:46.006Z,100016.75
2022-09-03T09:24:29.974Z,100015.53
2022-09-03T09:27:02.496Z,100033.28
2022-09-03T09:29:36.301Z,100031.56
2022-09-03T09:32:07.252Z,100026.28
2022-09-03T09:34:38.879Z,100033.75
2022-09-03T09:37:11.684Z,100026.56
2022-09-03T09:39:39.277Z,100029.03
2022-09-03T09:42:11.126Z,100024.00
2022-09-03T09:44:41.358Z,100018.34
2022-09-03T09:47:22.420Z,100008.44
2022-09-03T09:50:02.541Z,100000.53
2022-09-03T09:52:31.599Z,99987.97
2022-09-03T09:55:19.209Z,99987.88
2022-09-03T09:57:47.911Z,99990.78
2022-09-03T10:00:18.002Z,99992.59
2022-09-03T10:02:56.645Z,99990.38
2022-09-03T10:05:30.717Z,99994.25
2022-09-03T10:08:07.737Z,99989.25
2022-09-03T10:10:44.775Z,99990.06
2022-09-03T10:13:34.709Z,100000.03
2022-09-03T10:16:12.558Z,99999.38
2022-09-03T10:19:02.051Z,100012.00
2022-09-03T10:21:40.815Z,100008.50
2022-09-03T10:24:47.397Z,99998.56
2022-09-03T10:27:17.532Z,99988.81
2022-09-03T10:29:45.083Z,100000.94
2022-09-03T10:32:37.811Z,99989.84
2022-09-03T10:35:38.140Z,99999.91
2022-09-03T10:38:33.013Z,100004.66
2022-09-03T10:41:21.879Z,100001.88
2022-09-03T10:44:40.129Z,99993.59
2022-09-03T10:47:21.749Z,99992.28
2022-09-03T10:50:19.520Z,99996.28
2022-09-03T10:53:07.608Z,100008.56
2022-09-03T10:55:59.128Z,99991.75
2022-09-03T10:59:13.775Z,100005.75
2022-09-03T11:01:58.174Z,100007.03
2022-09-03T11:05:01.025Z,99997.34
2022-09-03T11:07:37.691Z,100002.72
2022-09-03T11:10:16.233Z,99998.28
2022-09-03T11:13:02.126Z,99994.16
2022-09-03T11:15:40.237Z,99984.13
2022-09-03T11:18:19.128Z,99984.97
2022-09-03T11:20:49.638Z,99986.69
2022-09-03T11:23:19.495Z,99986.19
2022-09-03T11:25:54.522Z,99988.00
2022-09-03T11:28:28.446Z,99988.19
2022-09-03T11:31:13.478Z,99984.72
2022-09-03T11:33:51.046Z,99967.78
2022-09-03T11:36:38.730Z,99975.88
2022-09-03T11:39:32.955Z,99963.81
2022-09-03T11:42:25.245Z,99956.16
2022-09-03T11:44:53.239Z,99963.94
2022-09-03T11:47:20.077Z,99942.94
2022-09-03T11:50:16.870Z,99961.09
2022-09-03T11:52:43.926Z,99956.06
2022-09-03T11:55:12.006Z,99961.97
2022-09-03T11:57:43.801Z,99951.78
2022-09-03T12:00:22.435Z,99950.72
2022-09-03T12:02:58.937Z,99970.44
2022-09-03T12:05:51.637Z,99962.13
2022-09-03T12:08:59.160Z,99967.00
2022-09-03T12:11:56.868Z,99962.97
2022-09-03T12:14:41.033Z,99961.97
2022-09-03T12:17:49.976Z,99969.09
2022-09-03T12:20:23.598Z,99972.34
2022-09-03T12:22:50.574Z,99951.84
2022-09-03T12:25:17.587Z,99961.06
2022-09-03T12:27:45.869Z,99945.41
2022-09-03T12:30:23.901Z,99947.06
2022-09-03T12:32:52.358Z,99944.41
2022-09-03T12:38:18.365Z,99952.25
2022-09-03T12:43:42.420Z,99958.47
2022-09-03T12:46:15.678Z,99955.56
2022-09-03T12:49:33.912Z,99946.06
2022-09-03T12:52:13.356Z,99953.78
2022-09-03T12:55:12.825Z,99948.59
2022-09-03T12:57:46.897Z,99953.22
2022-09-03T13:00:16.953Z,99959.47
2022-09-03T13:02:55.482Z,99960.44
2022-09-03T13:05:33.553Z,99963.81
2022-09-03T13:08:04.107Z,99961.94
2022-09-03T13:10:41.955Z,99958.88
2022-09-03T13:13:26.912Z,99957.59
2022-09-03T13:16:16.615Z,99959.66
2022-09-03T13:19:23.490Z,99955.06
2022-09-03T13:21:57.643Z,99962.03
2022-09-03T13:25:02.941Z,99964.28
2022-09-03T13:27:41.819Z,99968.09
2022-09-03T13:30:17.276Z,99962.78
2022-09-03T13:32:59.409Z,99948.47
2022-09-03T13:35:49.957Z,99952.63
2022-09-03T13:38:28.994Z,99951.28
2022-09-03T13:41:15.070Z,99948.34
2022-09-03T13:43:53.745Z,99955.41
2022-09-03T13:46:40.682Z,99959.53
2022-09-03T13:49:50.719Z,99977.19
2022-09-03T13:52:30.418Z,99974.53
2022-09-03T13:55:08.995Z,99982.94
2022-09-03T13:57:46.382Z,99969.94
2022-09-03T14:00:25.080Z,99972.00
2022-09-03T14:03:50.004Z,99974.56
2022-09-03T14:06:43.016Z,99968.38
2022-09-03T14:09:34.856Z,99972.72
2022-09-03T14:12:46.937Z,99980.81
2022-09-03T14:15:31.179Z,99991.00
2022-09-03T14:18:13.818Z,99989.69
2022-09-03T14:21:16.067Z,99986.97
2022-09-03T14:24:07.001Z,99992.34
2022-09-03T14:26:39.393Z,99981.66
2022-09-03T14:29:12.995Z,99978.19
2022-09-03T14:32:01.261Z,99975.91
2022-09-03T14:34:50.626Z,99968.97
2022-09-03T14:38:02.682Z,99983.66
2022-09-03T14:40:50.534Z,99987.97
2022-09-03T14:44:03.062Z,99990.44
2022-09-03T14:46:57.142Z,99988.16
2022-09-03T14:49:27.303Z,99986.25
2022-09-03T14:52:40.510Z,99977.28
2022-09-03T14:55:22.294Z,99980.50
2022-09-03T14:58:25.072Z,99986.63
2022-09-03T15:01:39.018Z,99991.91
2022-09-03T15:04:37.771Z,99981.06
2022-09-03T15:07:30.939Z,99977.31
2022-09-03T15:10:19.142Z,99978.47
2022-09-03T15:13:12.279Z,99979.81
2022-09-03T15:15:42.219Z,99983.75
2022-09-03T15:18:38.215Z,99988.09
2022-09-03T15:21:51.906Z,99992.44
2022-09-03T15:25:03.279Z,99986.47
2022-09-03T15:28:01.330Z,99996.59
2022-09-03T15:31:04.099Z,99990.16
2022-09-03T15:33:40.600Z,100000.44
2022-09-03T15:36:23.768Z,99995.75
2022-09-03T15:39:07.118Z,99986.78
2022-09-03T15:41:58.607Z,99993.09
2022-09-03T15:44:28.717Z,100003.00
2022-09-03T15:47:14.038Z,99994.72
2022-09-03T15:49:47.113Z,99987.94
2022-09-03T15:52:51.766Z,99993.97
2022-09-03T15:56:14.206Z,99997.03
2022-09-03T15:59:00.081Z,99994.22
2022-09-03T16:01:33.698Z,99991.03
2022-09-03T16:04:27.919Z,99985.16
2022-09-03T16:07:37.824Z,99972.03
2022-09-03T16:10:25.512Z,99971.16
2022-09-03T16:13:34.437Z,99974.81
2022-09-03T16:16:09.737Z,99978.41
2022-09-03T16:19:01.591Z,99974.16
2022-09-03T16:21:45.566Z,99975.38
2022-09-03T16:24:45.234Z,99971.81
2022-09-03T16:27:24.135Z,99958.72
2022-09-03T16:30:10.663Z,99971.53
2022-09-03T16:33:09.662Z,99969.22
2022-09-03T16:35:50.491Z,99967.25
2022-09-03T16:38:59.687Z,99961.81
2022-09-03T16:41:36.990Z,99965.00
2022-09-03T16:44:40.053Z,99957.66
2022-09-03T16:47:37.668Z,99972.97
2022-09-03T16:50:40.195Z,99973.09
2022-09-03T16:53:46.063Z,99966.31
2022-09-03T16:56:57.756Z,99972.41
2022-09-03T16:59:39.945Z,99968.69
2022-09-03T17:03:26.188Z,99979.91
2022-09-03T17:06:26.763Z,99974.91
2022-09-03T17:09:06.878Z,99989.03
2022-09-03T17:12:11.466Z,99983.94
2022-09-03T17:14:50.470Z,99985.78
2022-09-03T17:18:11.070Z,99984.81
2022-09-03T17:21:51.774Z,99984.81
2022-09-03T17:25:06.302Z,99984.72
2022-09-03T17:27:49.573Z,99983.09
2022-09-03T17:30:40.558Z,99990.16
2022-09-03T17:33:36.352Z,99984.28
2022-09-03T17:36:18.723Z,99993.53
2022-09-03T17:39:06.818Z,99997.22
2022-09-03T17:41:59.484Z,100001.91
2022-09-03T17:45:03.664Z,100011.56
2022-09-03T17:47:51.710Z,100004.22
2022-09-03T17:50:34.565Z,100009.78
2022-09-03T17:53:26.853Z,100008.59
2022-09-03T17:56:00.824Z,100013.28
2022-09-03T17:58:45.250Z,100030.84
2022-09-03T18:01:21.799Z,100031.69
2022-09-03T18:04:29.026Z,100037.47
2022-09-03T18:07:54.974Z,100037.63
2022-09-03T18:10:37.456Z,100047.44
2022-09-03T18:13:27.148Z,100053.16
2022-09-03T18:16:14.504Z,100054.00
2022-09-03T18:18:51.343Z,100059.06
2022-09-03T18:21:43.765Z,100057.84
2022-09-03T18:24:54.257Z,100059.13
2022-09-03T18:28:09.936Z,100067.69
2022-09-03T18:30:55.368Z,100061.81
2022-09-03T18:33:44.529Z,100068.31
2022-09-03T18:36:31.427Z,100062.66
2022-09-03T18:39:30.034Z,100082.16
2022-09-03T18:42:29.805Z,100083.34
2022-09-03T18:50:03.637Z,100083.72
2022-09-03T18:53:15.715Z,100089.00
2022-09-03T18:56:13.110Z,100090.63
2022-09-03T18:59:27.243Z,100095.91
2022-09-03T19:02:13.362Z,100095.94
2022-09-03T19:05:17.831Z,100094.31
2022-09-03T19:08:57.355Z,100093.31
2022-09-03T19:12:26.731Z,100097.16
2022-09-03T19:15:21.862Z,100097.31
2022-09-03T19:18:32.811Z,100098.09
2022-09-03T19:21:59.841Z,100103.22
2022-09-03T19:24:50.338Z,100104.44
2022-09-03T19:27:58.644Z,100113.25
2022-09-03T19:31:09.458Z,100116.13
2022-09-03T19:34:27.287Z,100113.91
2022-09-03T19:38:09.247Z,100124.72
2022-09-03T19:41:39.128Z,100122.28
2022-09-03T19:44:43.146Z,100119.03
2022-09-03T19:47:42.768Z,100131.22
2022-09-03T19:50:43.932Z,100138.91
2022-09-03T19:53:38.451Z,100135.91
2022-09-03T19:56:42.640Z,100138.13
2022-09-03T19:59:39.710Z,100132.84
2022-09-03T20:02:25.494Z,100139.16
2022-09-03T20:05:19.741Z,100129.22
2022-09-03T20:08:11.089Z,100130.22
2022-09-03T20:10:38.149Z,100135.50
2022-09-03T20:13:19.871Z,100125.94
2022-09-03T20:16:11.625Z,100126.75
2022-09-03T20:19:10.915Z,100132.66
2022-09-03T20:22:45.082Z,100140.72
2022-09-03T20:25:34.243Z,100138.94
2022-09-03T20:28:33.176Z,100135.66
2022-09-03T20:31:06.733Z,100140.75
2022-09-03T20:33:52.458Z,100138.84
2022-09-03T20:36:22.083Z,100134.13
2022-09-03T20:39:09.243Z,100152.13
2022-09-03T20:41:50.513Z,100147.25
2022-09-03T20:44:41.694Z,100150.47
2022-09-03T20:47:48.388Z,100153.72
2022-09-03T20:50:27.611Z,100155.06
2022-09-03T20:53:13.811Z,100165.75
2022-09-03T20:55:49.395Z,100158.84
2022-09-03T20:58:31.802Z,100171.78
2022-09-03T21:01:07.855Z,100166.88
2022-09-03T21:03:53.491Z,100171.09
2022-09-03T21:06:36.194Z,100177.03
2022-09-03T21:09:51.281Z,100180.78
2022-09-03T21:12:33.112Z,100178.88
2022-09-03T21:15:33.564Z,100182.47
2022-09-03T21:18:20.696Z,100186.31
2022-09-03T21:21:01.759Z,100185.97
2022-09-03T21:24:00.833Z,100194.63
2022-09-03T21:26:37.072Z,100193.09
2022-09-03T21:29:26.564Z,100189.72
2022-09-03T21:32:17.143Z,100192.34
2022-09-03T21:35:28.223Z,100188.56
2022-09-03T21:38:24.013Z,100186.81
2022-09-03T21:41:19.286Z,100189.34
2022-09-03T21:44:05.426Z,100194.47
2022-09-03T21:46:40.557Z,100195.03
2022-09-03T21:49:11.123Z,100197.78
2022-09-03T21:52:01.135Z,100197.47
2022-09-03T21:54:34.152Z,100193.22
2022-09-03T21:57:34.961Z,100202.38
2022-09-03T22:00:19.294Z,100204.81
2022-09-03T22:02:47.852Z,100204.19
2022-09-03T22:05:17.034Z,100204.63
2022-09-03T22:08:00.000Z,100210.50
2022-09-03T22:10:40.570Z,100205.66
2022-09-03T22:13:32.370Z,100208.56
2022-09-03T22:16:23.368Z,100205.06
2022-09-03T22:18:50.801Z,100210.09
2022-09-03T22:21:33.402Z,100209.22
2022-09-03T22:24:23.367Z,100206.00
2022-09-03T22:27:22.354Z,100206.94
2022-09-03T22:30:06.812Z,100214.47
2022-09-03T22:32:55.392Z,100220.97
2022-09-03T22:36:07.962Z,100221.13
2022-09-03T22:39:04.467Z,100223.22
2022-09-03T22:41:34.813Z,100224.13
2022-09-03T22:44:49.673Z,100227.63
2022-09-03T22:47:42.147Z,100226.09
2022-09-03T22:50:22.955Z,100219.72
2022-09-03T22:53:03.598Z,100235.78
2022-09-03T22:55:30.659Z,100235.66
2022-09-03T22:58:25.612Z,100237.56
2022-09-03T23:01:16.882Z,100241.19
2022-09-03T23:03:55.625Z,100241.25
2022-09-03T23:06:34.590Z,100238.13
2022-09-03T23:09:14.799Z,100232.75
2022-09-03T23:11:50.168Z,100232.53
2022-09-03T23:14:34.285Z,100231.25
2022-09-03T23:17:11.173Z,100229.78
2022-09-03T23:19:44.299Z,100229.09
2022-09-03T23:22:43.939Z,100236.72
2022-09-03T23:25:18.576Z,100236.53
2022-09-03T23:27:58.570Z,100231.25
2022-09-03T23:30:25.957Z,100236.53
2022-09-03T23:32:58.400Z,100238.34
2022-09-03T23:35:31.481Z,100248.16
2022-09-03T23:38:36.354Z,100247.03
2022-09-03T23:41:10.578Z,100250.03
2022-09-03T23:43:47.386Z,100243.59
2022-09-03T23:46:22.454Z,100251.41
2022-09-03T23:49:18.291Z,100244.44
2022-09-03T23:52:08.930Z,100238.22
2022-09-03T23:54:47.032Z,100247.63
2022-09-03T23:57:38.369Z,100249.78
